sensor_id;sensor_type;location;lat;lon;timestamp;P1;durP1;ratioP1;P2;durP2;ratioP2
68714;SDS011;55692;53.356;10.030;2023-10-13T00:01:06;15.27;;;3.22;;
68714;SDS011;55692;53.356;10.030;2023-10-13T00:03:33;11.30;;;3.50;;
68714;SDS011;55692;53.356;10.030;2023-10-13T00:05:59;14.45;;;4.13;;
68714;SDS011;55692;53.356;10.030;2023-10-13T00:08:28;15.75;;;3.58;;
68714;SDS011;55692;53.356;10.030;2023-10-13T00:10:54;10.27;;;4.13;;
68714;SDS011;55692;53.356;10.030;2023-10-13T00:13:28;8.65;;;3.28;;
68714;SDS011;55692;53.356;10.030;2023-10-13T00:15:56;11.90;;;4.25;;
68714;SDS011;55692;53.356;10.030;2023-10-13T00:18:26;9.82;;;4.05;;
68714;SDS011;55692;53.356;10.030;2023-10-13T00:20:58;12.45;;;4.32;;
68714;SDS011;55692;53.356;10.030;2023-10-13T00:23:24;15.60;;;4.32;;
68714;SDS011;55692;53.356;10.030;2023-10-13T00:25:52;13.85;;;4.35;;
68714;SDS011;55692;53.356;10.030;2023-10-13T00:28:27;14.35;;;4.10;;
68714;SDS011;55692;53.356;10.030;2023-10-13T00:31:00;15.27;;;4.40;;
68714;SDS011;55692;53.356;10.030;2023-10-13T00:33:35;21.60;;;5.35;;
68714;SDS011;55692;53.356;10.030;2023-10-13T00:36:02;13.63;;;4.63;;
68714;SDS011;55692;53.356;10.030;2023-10-13T00:38:30;13.07;;;4.50;;
68714;SDS011;55692;53.356;10.030;2023-10-13T00:40:56;23.17;;;5.43;;
68714;SDS011;55692;53.356;10.030;2023-10-13T00:43:28;17.05;;;5.22;;
68714;SDS011;55692;53.356;10.030;2023-10-13T00:45:57;19.42;;;5.32;;
68714;SDS011;55692;53.356;10.030;2023-10-13T00:48:29;27.55;;;6.82;;
68714;SDS011;55692;53.356;10.030;2023-10-13T00:51:00;16.55;;;5.40;;
68714;SDS011;55692;53.356;10.030;2023-10-13T00:53:31;18.52;;;6.32;;
68714;SDS011;55692;53.356;10.030;2023-10-13T00:56:09;19.58;;;6.55;;
68714;SDS011;55692;53.356;10.030;2023-10-13T00:58:44;19.50;;;6.10;;
68714;SDS011;55692;53.356;10.030;2023-10-13T01:01:17;17.02;;;7.00;;
68714;SDS011;55692;53.356;10.030;2023-10-13T01:03:54;30.90;;;7.03;;
68714;SDS011;55692;53.356;10.030;2023-10-13T01:06:20;17.92;;;7.63;;
68714;SDS011;55692;53.356;10.030;2023-10-13T01:08:56;24.10;;;7.65;;
68714;SDS011;55692;53.356;10.030;2023-10-13T01:11:22;22.70;;;8.70;;
68714;SDS011;55692;53.356;10.030;2023-10-13T01:13:49;26.85;;;9.00;;
68714;SDS011;55692;53.356;10.030;2023-10-13T01:16:19;24.55;;;9.10;;
68714;SDS011;55692;53.356;10.030;2023-10-13T01:18:48;28.35;;;11.70;;
68714;SDS011;55692;53.356;10.030;2023-10-13T01:21:15;31.65;;;12.07;;
68714;SDS011;55692;53.356;10.030;2023-10-13T01:23:44;41.55;;;12.73;;
68714;SDS011;55692;53.356;10.030;2023-10-13T01:26:11;44.85;;;12.95;;
68714;SDS011;55692;53.356;10.030;2023-10-13T01:28:41;41.60;;;14.15;;
68714;SDS011;55692;53.356;10.030;2023-10-13T01:31:11;43.60;;;14.13;;
68714;SDS011;55692;53.356;10.030;2023-10-13T01:33:38;47.63;;;14.32;;
68714;SDS011;55692;53.356;10.030;2023-10-13T01:36:04;47.28;;;14.07;;
68714;SDS011;55692;53.356;10.030;2023-10-13T01:38:33;40.47;;;14.73;;
68714;SDS011;55692;53.356;10.030;2023-10-13T01:41:04;40.67;;;14.65;;
68714;SDS011;55692;53.356;10.030;2023-10-13T01:43:30;51.47;;;15.20;;
68714;SDS011;55692;53.356;10.030;2023-10-13T01:45:56;41.38;;;14.02;;
68714;SDS011;55692;53.356;10.030;2023-10-13T01:48:22;47.30;;;15.35;;
68714;SDS011;55692;53.356;10.030;2023-10-13T01:50:48;48.45;;;16.25;;
68714;SDS011;55692;53.356;10.030;2023-10-13T01:53:20;39.90;;;14.40;;
68714;SDS011;55692;53.356;10.030;2023-10-13T01:55:47;38.95;;;14.80;;
68714;SDS011;55692;53.356;10.030;2023-10-13T01:58:15;46.47;;;15.40;;
68714;SDS011;55692;53.356;10.030;2023-10-13T02:00:41;42.45;;;15.40;;
68714;SDS011;55692;53.356;10.030;2023-10-13T02:03:09;39.83;;;15.85;;
68714;SDS011;55692;53.356;10.030;2023-10-13T02:05:45;45.78;;;15.80;;
68714;SDS011;55692;53.356;10.030;2023-10-13T02:10:48;45.83;;;16.20;;
68714;SDS011;55692;53.356;10.030;2023-10-13T02:13:14;41.95;;;15.45;;
68714;SDS011;55692;53.356;10.030;2023-10-13T02:15:42;39.60;;;15.50;;
68714;SDS011;55692;53.356;10.030;2023-10-13T02:18:09;53.95;;;15.20;;
68714;SDS011;55692;53.356;10.030;2023-10-13T02:20:35;41.75;;;15.10;;
68714;SDS011;55692;53.356;10.030;2023-10-13T02:25:37;40.45;;;13.68;;
68714;SDS011;55692;53.356;10.030;2023-10-13T02:28:10;31.38;;;11.93;;
68714;SDS011;55692;53.356;10.030;2023-10-13T02:30:43;34.38;;;11.35;;
68714;SDS011;55692;53.356;10.030;2023-10-13T02:33:15;31.30;;;10.52;;
68714;SDS011;55692;53.356;10.030;2023-10-13T02:35:54;26.77;;;10.20;;
68714;SDS011;55692;53.356;10.030;2023-10-13T02:38:21;29.30;;;9.52;;
68714;SDS011;55692;53.356;10.030;2023-10-13T02:41:00;30.08;;;10.00;;
68714;SDS011;55692;53.356;10.030;2023-10-13T02:43:33;25.80;;;9.57;;
68714;SDS011;55692;53.356;10.030;2023-10-13T02:45:58;26.25;;;9.90;;
68714;SDS011;55692;53.356;10.030;2023-10-13T02:48:25;25.23;;;9.77;;
68714;SDS011;55692;53.356;10.030;2023-10-13T02:50:58;25.65;;;10.10;;
68714;SDS011;55692;53.356;10.030;2023-10-13T02:53:30;27.58;;;10.02;;
68714;SDS011;55692;53.356;10.030;2023-10-13T02:55:56;24.27;;;9.63;;
68714;SDS011;55692;53.356;10.030;2023-10-13T02:58:29;32.88;;;9.95;;
68714;SDS011;55692;53.356;10.030;2023-10-13T03:01:03;31.48;;;11.50;;
68714;SDS011;55692;53.356;10.030;2023-10-13T03:03:35;28.75;;;10.55;;
68714;SDS011;55692;53.356;10.030;2023-10-13T03:06:01;29.17;;;11.07;;
68714;SDS011;55692;53.356;10.030;2023-10-13T03:08:28;33.83;;;11.80;;
68714;SDS011;55692;53.356;10.030;2023-10-13T03:10:56;33.85;;;12.88;;
68714;SDS011;55692;53.356;10.030;2023-10-13T03:13:22;36.38;;;11.48;;
68714;SDS011;55692;53.356;10.030;2023-10-13T03:15:48;38.17;;;11.85;;
68714;SDS011;55692;53.356;10.030;2023-10-13T03:18:14;36.38;;;12.10;;
68714;SDS011;55692;53.356;10.030;2023-10-13T03:20:43;35.72;;;12.48;;
68714;SDS011;55692;53.356;10.030;2023-10-13T03:23:09;31.63;;;12.00;;
68714;SDS011;55692;53.356;10.030;2023-10-13T03:25:35;27.48;;;10.57;;
68714;SDS011;55692;53.356;10.030;2023-10-13T03:28:14;32.53;;;11.88;;
68714;SDS011;55692;53.356;10.030;2023-10-13T03:30:43;37.42;;;10.80;;
68714;SDS011;55692;53.356;10.030;2023-10-13T03:33:09;29.35;;;10.10;;
68714;SDS011;55692;53.356;10.030;2023-10-13T03:35:39;25.63;;;9.18;;
68714;SDS011;55692;53.356;10.030;2023-10-13T03:38:07;25.45;;;9.20;;
68714;SDS011;55692;53.356;10.030;2023-10-13T03:40:45;27.27;;;9.20;;
68714;SDS011;55692;53.356;10.030;2023-10-13T03:43:20;29.23;;;8.90;;
68714;SDS011;55692;53.356;10.030;2023-10-13T03:45:47;25.55;;;7.88;;
68714;SDS011;55692;53.356;10.030;2023-10-13T03:48:26;24.08;;;7.70;;
68714;SDS011;55692;53.356;10.030;2023-10-13T03:50:52;24.17;;;7.95;;
68714;SDS011;55692;53.356;10.030;2023-10-13T03:53:40;23.38;;;8.10;;
68714;SDS011;55692;53.356;10.030;2023-10-13T03:56:19;26.40;;;8.20;;
68714;SDS011;55692;53.356;10.030;2023-10-13T03:58:51;26.63;;;9.30;;
68714;SDS011;55692;53.356;10.030;2023-10-13T04:01:19;21.40;;;8.27;;
68714;SDS011;55692;53.356;10.030;2023-10-13T04:03:54;29.23;;;9.32;;
68714;SDS011;55692;53.356;10.030;2023-10-13T04:06:28;27.55;;;10.13;;
68714;SDS011;55692;53.356;10.030;2023-10-13T04:09:13;26.15;;;9.73;;
68714;SDS011;55692;53.356;10.030;2023-10-13T04:11:51;28.13;;;10.60;;
68714;SDS011;55692;53.356;10.030;2023-10-13T04:14:41;33.95;;;11.05;;
68714;SDS011;55692;53.356;10.030;2023-10-13T04:17:22;34.15;;;11.95;;
68714;SDS011;55692;53.356;10.030;2023-10-13T04:19:51;40.45;;;13.85;;
68714;SDS011;55692;53.356;10.030;2023-10-13T04:22:33;42.17;;;15.05;;
68714;SDS011;55692;53.356;10.030;2023-10-13T04:25:21;46.80;;;15.00;;
68714;SDS011;55692;53.356;10.030;2023-10-13T04:28:00;47.45;;;16.90;;
68714;SDS011;55692;53.356;10.030;2023-10-13T04:30:42;55.15;;;17.45;;
68714;SDS011;55692;53.356;10.030;2023-10-13T04:33:17;55.95;;;18.15;;
68714;SDS011;55692;53.356;10.030;2023-10-13T04:36:09;53.70;;;18.75;;
68714;SDS011;55692;53.356;10.030;2023-10-13T04:38:56;61.03;;;20.33;;
68714;SDS011;55692;53.356;10.030;2023-10-13T04:41:38;61.55;;;21.23;;
68714;SDS011;55692;53.356;10.030;2023-10-13T04:44:07;71.65;;;20.95;;
68714;SDS011;55692;53.356;10.030;2023-10-13T04:47:08;66.25;;;20.70;;
68714;SDS011;55692;53.356;10.030;2023-10-13T04:49:38;65.85;;;22.15;;
68714;SDS011;55692;53.356;10.030;2023-10-13T04:52:13;64.70;;;22.02;;
68714;SDS011;55692;53.356;10.030;2023-10-13T04:54:58;70.40;;;22.10;;
68714;SDS011;55692;53.356;10.030;2023-10-13T04:57:34;71.60;;;21.83;;
68714;SDS011;55692;53.356;10.030;2023-10-13T05:00:12;62.17;;;20.92;;
68714;SDS011;55692;53.356;10.030;2023-10-13T05:02:45;56.40;;;21.52;;
68714;SDS011;55692;53.356;10.030;2023-10-13T05:05:20;67.30;;;22.55;;
68714;SDS011;55692;53.356;10.030;2023-10-13T05:08:06;60.55;;;21.10;;
68714;SDS011;55692;53.356;10.030;2023-10-13T05:11:11;73.50;;;22.45;;
68714;SDS011;55692;53.356;10.030;2023-10-13T05:13:55;78.90;;;23.40;;
68714;SDS011;55692;53.356;10.030;2023-10-13T05:16:39;67.28;;;22.83;;
68714;SDS011;55692;53.356;10.030;2023-10-13T05:19:24;66.28;;;23.65;;
68714;SDS011;55692;53.356;10.030;2023-10-13T05:22:09;72.75;;;23.55;;
68714;SDS011;55692;53.356;10.030;2023-10-13T05:24:53;63.25;;;23.50;;
68714;SDS011;55692;53.356;10.030;2023-10-13T05:27:38;64.78;;;24.67;;
68714;SDS011;55692;53.356;10.030;2023-10-13T05:30:23;64.20;;;23.77;;
68714;SDS011;55692;53.356;10.030;2023-10-13T05:33:07;69.05;;;25.77;;
68714;SDS011;55692;53.356;10.030;2023-10-13T05:35:52;66.00;;;24.27;;
68714;SDS011;55692;53.356;10.030;2023-10-13T05:38:50;65.65;;;23.13;;
68714;SDS011;55692;53.356;10.030;2023-10-13T05:41:35;62.67;;;22.48;;
68714;SDS011;55692;53.356;10.030;2023-10-13T05:44:19;66.47;;;22.05;;
68714;SDS011;55692;53.356;10.030;2023-10-13T05:47:20;62.33;;;23.27;;
68714;SDS011;55692;53.356;10.030;2023-10-13T05:50:05;58.45;;;23.48;;
68714;SDS011;55692;53.356;10.030;2023-10-13T05:52:50;53.80;;;23.08;;
68714;SDS011;55692;53.356;10.030;2023-10-13T05:55:22;59.20;;;22.55;;
68714;SDS011;55692;53.356;10.030;2023-10-13T05:58:07;56.05;;;23.23;;
68714;SDS011;55692;53.356;10.030;2023-10-13T06:01:12;60.95;;;24.08;;
68714;SDS011;55692;53.356;10.030;2023-10-13T06:03:56;58.55;;;23.58;;
68714;SDS011;55692;53.356;10.030;2023-10-13T06:06:40;50.38;;;22.75;;
68714;SDS011;55692;53.356;10.030;2023-10-13T06:09:25;52.95;;;22.05;;
68714;SDS011;55692;53.356;10.030;2023-10-13T06:12:09;49.80;;;21.48;;
68714;SDS011;55692;53.356;10.030;2023-10-13T06:14:54;54.53;;;23.42;;
68714;SDS011;55692;53.356;10.030;2023-10-13T06:17:39;54.50;;;22.58;;
68714;SDS011;55692;53.356;10.030;2023-10-13T06:20:23;54.55;;;21.70;;
68714;SDS011;55692;53.356;10.030;2023-10-13T06:23:08;44.38;;;21.65;;
68714;SDS011;55692;53.356;10.030;2023-10-13T06:25:53;48.45;;;21.80;;
68714;SDS011;55692;53.356;10.030;2023-10-13T06:28:38;52.17;;;22.50;;
68714;SDS011;55692;53.356;10.030;2023-10-13T06:31:08;56.80;;;23.17;;
68714;SDS011;55692;53.356;10.030;2023-10-13T06:33:39;53.53;;;22.20;;
68714;SDS011;55692;53.356;10.030;2023-10-13T06:36:10;44.85;;;21.13;;
68714;SDS011;55692;53.356;10.030;2023-10-13T06:38:36;52.22;;;21.13;;
68714;SDS011;55692;53.356;10.030;2023-10-13T06:41:06;45.95;;;21.55;;
68714;SDS011;55692;53.356;10.030;2023-10-13T06:43:32;46.08;;;20.98;;
68714;SDS011;55692;53.356;10.030;2023-10-13T06:46:04;45.83;;;21.13;;
68714;SDS011;55692;53.356;10.030;2023-10-13T06:48:30;48.38;;;20.83;;
68714;SDS011;55692;53.356;10.030;2023-10-13T06:50:59;46.88;;;21.25;;
68714;SDS011;55692;53.356;10.030;2023-10-13T06:53:30;44.72;;;19.98;;
68714;SDS011;55692;53.356;10.030;2023-10-13T06:56:02;40.53;;;20.27;;
68714;SDS011;55692;53.356;10.030;2023-10-13T06:58:28;41.28;;;19.73;;
68714;SDS011;55692;53.356;10.030;2023-10-13T07:00:54;44.78;;;19.88;;
68714;SDS011;55692;53.356;10.030;2023-10-13T07:03:24;36.17;;;18.25;;
68714;SDS011;55692;53.356;10.030;2023-10-13T07:05:50;42.00;;;19.17;;
68714;SDS011;55692;53.356;10.030;2023-10-13T07:08:17;36.60;;;18.08;;
68714;SDS011;55692;53.356;10.030;2023-10-13T07:10:50;35.05;;;17.27;;
68714;SDS011;55692;53.356;10.030;2023-10-13T07:13:26;42.50;;;16.77;;
68714;SDS011;55692;53.356;10.030;2023-10-13T07:15:53;31.58;;;15.23;;
68714;SDS011;55692;53.356;10.030;2023-10-13T07:18:25;29.60;;;15.57;;
68714;SDS011;55692;53.356;10.030;2023-10-13T07:20:51;30.23;;;16.05;;
68714;SDS011;55692;53.356;10.030;2023-10-13T07:23:22;32.17;;;15.25;;
68714;SDS011;55692;53.356;10.030;2023-10-13T07:25:56;30.45;;;15.13;;
68714;SDS011;55692;53.356;10.030;2023-10-13T07:28:30;28.73;;;14.60;;
68714;SDS011;55692;53.356;10.030;2023-10-13T07:31:01;26.60;;;14.40;;
68714;SDS011;55692;53.356;10.030;2023-10-13T07:33:26;28.20;;;13.60;;
68714;SDS011;55692;53.356;10.030;2023-10-13T07:38:40;24.95;;;12.68;;
68714;SDS011;55692;53.356;10.030;2023-10-13T07:41:07;23.25;;;13.32;;
68714;SDS011;55692;53.356;10.030;2023-10-13T07:43:34;21.80;;;11.25;;
68714;SDS011;55692;53.356;10.030;2023-10-13T07:46:02;21.02;;;10.98;;
68714;SDS011;55692;53.356;10.030;2023-10-13T07:48:34;20.83;;;10.98;;
68714;SDS011;55692;53.356;10.030;2023-10-13T07:51:01;20.20;;;10.75;;
68714;SDS011;55692;53.356;10.030;2023-10-13T07:53:28;18.30;;;10.07;;
68714;SDS011;55692;53.356;10.030;2023-10-13T07:55:59;15.30;;;9.30;;
68714;SDS011;55692;53.356;10.030;2023-10-13T07:58:30;19.77;;;10.38;;
68714;SDS011;55692;53.356;10.030;2023-10-13T08:00:58;16.63;;;9.23;;
68714;SDS011;55692;53.356;10.030;2023-10-13T08:03:33;20.55;;;9.90;;
68714;SDS011;55692;53.356;10.030;2023-10-13T08:06:09;22.77;;;11.13;;
68714;SDS011;55692;53.356;10.030;2023-10-13T08:08:35;23.60;;;10.05;;
68714;SDS011;55692;53.356;10.030;2023-10-13T08:11:05;17.80;;;10.70;;
68714;SDS011;55692;53.356;10.030;2023-10-13T08:13:53;21.55;;;10.27;;
68714;SDS011;55692;53.356;10.030;2023-10-13T08:16:22;19.88;;;10.05;;
68714;SDS011;55692;53.356;10.030;2023-10-13T08:18:54;17.25;;;10.13;;
68714;SDS011;55692;53.356;10.030;2023-10-13T08:21:21;24.42;;;10.60;;
68714;SDS011;55692;53.356;10.030;2023-10-13T08:23:50;22.17;;;10.02;;
68714;SDS011;55692;53.356;10.030;2023-10-13T08:26:31;17.60;;;10.23;;
68714;SDS011;55692;53.356;10.030;2023-10-13T08:29:17;17.80;;;9.73;;
68714;SDS011;55692;53.356;10.030;2023-10-13T08:31:43;20.38;;;10.27;;
68714;SDS011;55692;53.356;10.030;2023-10-13T08:34:33;18.75;;;9.15;;
68714;SDS011;55692;53.356;10.030;2023-10-13T08:37:25;19.38;;;8.80;;
68714;SDS011;55692;53.356;10.030;2023-10-13T08:39:55;18.05;;;8.65;;
68714;SDS011;55692;53.356;10.030;2023-10-13T08:42:33;15.43;;;7.85;;
68714;SDS011;55692;53.356;10.030;2023-10-13T08:45:15;13.55;;;7.68;;
68714;SDS011;55692;53.356;10.030;2023-10-13T08:47:59;13.85;;;7.00;;
68714;SDS011;55692;53.356;10.030;2023-10-13T08:56:04;8.35;;;5.40;;
68714;SDS011;55692;53.356;10.030;2023-10-13T08:58:40;11.38;;;5.35;;
68714;SDS011;55692;53.356;10.030;2023-10-13T09:01:25;10.50;;;5.65;;
68714;SDS011;55692;53.356;10.030;2023-10-13T09:04:08;7.00;;;5.13;;
68714;SDS011;55692;53.356;10.030;2023-10-13T09:09:13;9.60;;;6.18;;
68714;SDS011;55692;53.356;10.030;2023-10-13T09:11:57;9.43;;;4.93;;
68714;SDS011;55692;53.356;10.030;2023-10-13T09:14:35;9.48;;;4.60;;
68714;SDS011;55692;53.356;10.030;2023-10-13T09:17:05;10.05;;;3.97;;
68714;SDS011;55692;53.356;10.030;2023-10-13T09:19:49;6.72;;;4.22;;
68714;SDS011;55692;53.356;10.030;2023-10-13T09:22:25;7.85;;;4.60;;
68714;SDS011;55692;53.356;10.030;2023-10-13T09:25:01;7.97;;;4.03;;
68714;SDS011;55692;53.356;10.030;2023-10-13T09:27:28;8.43;;;3.72;;
68714;SDS011;55692;53.356;10.030;2023-10-13T09:29:57;9.50;;;4.32;;
68714;SDS011;55692;53.356;10.030;2023-10-13T09:32:43;8.70;;;4.35;;
68714;SDS011;55692;53.356;10.030;2023-10-13T09:35:19;7.13;;;3.83;;
68714;SDS011;55692;53.356;10.030;2023-10-13T09:37:50;8.80;;;4.10;;
68714;SDS011;55692;53.356;10.030;2023-10-13T09:40:17;10.10;;;3.78;;
68714;SDS011;55692;53.356;10.030;2023-10-13T09:43:00;10.57;;;4.00;;
68714;SDS011;55692;53.356;10.030;2023-10-13T09:45:33;8.10;;;3.95;;
68714;SDS011;55692;53.356;10.030;2023-10-13T09:48:11;9.30;;;3.83;;
68714;SDS011;55692;53.356;10.030;2023-10-13T09:50:47;16.80;;;3.90;;
68714;SDS011;55692;53.356;10.030;2023-10-13T09:53:16;12.18;;;4.00;;
68714;SDS011;55692;53.356;10.030;2023-10-13T09:56:18;11.13;;;4.03;;
68714;SDS011;55692;53.356;10.030;2023-10-13T09:58:42;10.38;;;3.63;;
68714;SDS011;55692;53.356;10.030;2023-10-13T10:03:46;9.52;;;3.95;;
68714;SDS011;55692;53.356;10.030;2023-10-13T10:06:32;9.05;;;3.72;;
68714;SDS011;55692;53.356;10.030;2023-10-13T10:09:07;9.73;;;4.25;;
68714;SDS011;55692;53.356;10.030;2023-10-13T10:14:11;8.70;;;4.68;;
68714;SDS011;55692;53.356;10.030;2023-10-13T10:16:46;11.73;;;4.38;;
68714;SDS011;55692;53.356;10.030;2023-10-13T10:19:14;10.68;;;4.68;;
68714;SDS011;55692;53.356;10.030;2023-10-13T10:21:40;11.95;;;4.68;;
68714;SDS011;55692;53.356;10.030;2023-10-13T10:24:15;7.63;;;4.72;;
68714;SDS011;55692;53.356;10.030;2023-10-13T10:26:54;13.45;;;4.57;;
68714;SDS011;55692;53.356;10.030;2023-10-13T10:29:20;9.10;;;5.13;;
68714;SDS011;55692;53.356;10.030;2023-10-13T10:31:46;10.90;;;5.20;;
68714;SDS011;55692;53.356;10.030;2023-10-13T10:34:16;10.23;;;4.80;;
68714;SDS011;55692;53.356;10.030;2023-10-13T10:36:53;12.40;;;4.45;;
68714;SDS011;55692;53.356;10.030;2023-10-13T10:39:19;9.45;;;5.38;;
68714;SDS011;55692;53.356;10.030;2023-10-13T10:41:46;9.65;;;4.57;;
68714;SDS011;55692;53.356;10.030;2023-10-13T10:44:19;7.72;;;4.72;;
68714;SDS011;55692;53.356;10.030;2023-10-13T10:47:08;12.10;;;4.50;;
68714;SDS011;55692;53.356;10.030;2023-10-13T10:49:36;10.27;;;4.72;;
68714;SDS011;55692;53.356;10.030;2023-10-13T10:52:02;7.07;;;4.30;;
68714;SDS011;55692;53.356;10.030;2023-10-13T10:54:32;10.02;;;4.10;;
68714;SDS011;55692;53.356;10.030;2023-10-13T10:56:59;7.90;;;4.30;;
68714;SDS011;55692;53.356;10.030;2023-10-13T10:59:38;10.02;;;3.80;;
68714;SDS011;55692;53.356;10.030;2023-10-13T11:02:05;9.93;;;4.38;;
68714;SDS011;55692;53.356;10.030;2023-10-13T11:04:32;9.93;;;4.30;;
68714;SDS011;55692;53.356;10.030;2023-10-13T11:07:06;9.15;;;3.83;;
68714;SDS011;55692;53.356;10.030;2023-10-13T11:09:34;7.60;;;3.80;;
68714;SDS011;55692;53.356;10.030;2023-10-13T11:14:39;11.32;;;4.75;;
68714;SDS011;55692;53.356;10.030;2023-10-13T11:17:05;13.05;;;4.50;;
68714;SDS011;55692;53.356;10.030;2023-10-13T11:19:44;10.48;;;4.03;;
68714;SDS011;55692;53.356;10.030;2023-10-13T11:22:13;9.38;;;4.20;;
68714;SDS011;55692;53.356;10.030;2023-10-13T11:25:02;12.48;;;4.95;;
68714;SDS011;55692;53.356;10.030;2023-10-13T11:27:34;9.07;;;4.07;;
68714;SDS011;55692;53.356;10.030;2023-10-13T11:30:16;10.98;;;3.88;;
68714;SDS011;55692;53.356;10.030;2023-10-13T11:35:25;8.10;;;3.88;;
68714;SDS011;55692;53.356;10.030;2023-10-13T11:38:13;8.15;;;4.22;;
68714;SDS011;55692;53.356;10.030;2023-10-13T11:40:40;10.15;;;3.88;;
68714;SDS011;55692;53.356;10.030;2023-10-13T11:43:24;8.43;;;4.18;;
68714;SDS011;55692;53.356;10.030;2023-10-13T11:45:51;9.50;;;4.43;;
68714;SDS011;55692;53.356;10.030;2023-10-13T11:48:49;10.52;;;4.45;;
68714;SDS011;55692;53.356;10.030;2023-10-13T11:51:19;10.45;;;3.75;;
68714;SDS011;55692;53.356;10.030;2023-10-13T11:53:57;12.55;;;4.18;;
68714;SDS011;55692;53.356;10.030;2023-10-13T11:56:23;11.88;;;3.90;;
68714;SDS011;55692;53.356;10.030;2023-10-13T11:58:49;8.93;;;3.35;;
68714;SDS011;55692;53.356;10.030;2023-10-13T12:01:16;7.03;;;3.47;;
68714;SDS011;55692;53.356;10.030;2023-10-13T12:03:48;11.38;;;3.55;;
68714;SDS011;55692;53.356;10.030;2023-10-13T12:06:34;12.70;;;4.50;;
68714;SDS011;55692;53.356;10.030;2023-10-13T12:09:00;13.57;;;4.00;;
68714;SDS011;55692;53.356;10.030;2023-10-13T12:11:44;11.30;;;4.68;;
68714;SDS011;55692;53.356;10.030;2023-10-13T12:14:13;10.52;;;3.92;;
68714;SDS011;55692;53.356;10.030;2023-10-13T12:16:44;16.35;;;3.83;;
68714;SDS011;55692;53.356;10.030;2023-10-13T12:19:16;13.82;;;3.60;;
68714;SDS011;55692;53.356;10.030;2023-10-13T12:21:42;7.85;;;3.80;;
68714;SDS011;55692;53.356;10.030;2023-10-13T12:24:09;6.85;;;3.35;;
68714;SDS011;55692;53.356;10.030;2023-10-13T12:26:47;10.40;;;4.40;;
68714;SDS011;55692;53.356;10.030;2023-10-13T12:29:13;8.75;;;3.80;;
68714;SDS011;55692;53.356;10.030;2023-10-13T12:31:47;15.52;;;4.40;;
68714;SDS011;55692;53.356;10.030;2023-10-13T12:37:16;9.20;;;3.28;;
68714;SDS011;55692;53.356;10.030;2023-10-13T12:40:01;12.35;;;4.13;;
68714;SDS011;55692;53.356;10.030;2023-10-13T12:42:46;13.27;;;4.10;;
68714;SDS011;55692;53.356;10.030;2023-10-13T12:45:31;16.23;;;4.10;;
68714;SDS011;55692;53.356;10.030;2023-10-13T12:48:16;12.57;;;4.10;;
68714;SDS011;55692;53.356;10.030;2023-10-13T12:51:01;12.75;;;4.03;;
68714;SDS011;55692;53.356;10.030;2023-10-13T12:53:45;14.77;;;4.85;;
68714;SDS011;55692;53.356;10.030;2023-10-13T12:56:11;9.80;;;3.50;;
68714;SDS011;55692;53.356;10.030;2023-10-13T12:58:37;12.38;;;4.43;;
68714;SDS011;55692;53.356;10.030;2023-10-13T13:01:03;15.70;;;4.15;;
68714;SDS011;55692;53.356;10.030;2023-10-13T13:03:31;17.92;;;4.38;;
68714;SDS011;55692;53.356;10.030;2023-10-13T13:05:57;12.52;;;4.53;;
68714;SDS011;55692;53.356;10.030;2023-10-13T13:08:24;19.75;;;4.25;;
68714;SDS011;55692;53.356;10.030;2023-10-13T13:10:50;14.25;;;4.93;;
68714;SDS011;55692;53.356;10.030;2023-10-13T13:13:17;10.68;;;4.70;;
68714;SDS011;55692;53.356;10.030;2023-10-13T13:15:49;13.02;;;4.45;;
68714;SDS011;55692;53.356;10.030;2023-10-13T13:18:16;14.95;;;4.75;;
68714;SDS011;55692;53.356;10.030;2023-10-13T13:20:41;11.40;;;3.97;;
68714;SDS011;55692;53.356;10.030;2023-10-13T13:23:23;10.43;;;3.95;;
68714;SDS011;55692;53.356;10.030;2023-10-13T13:25:51;22.13;;;5.10;;
68714;SDS011;55692;53.356;10.030;2023-10-13T13:28:17;13.05;;;4.68;;
68714;SDS011;55692;53.356;10.030;2023-10-13T13:30:43;18.95;;;5.65;;
68714;SDS011;55692;53.356;10.030;2023-10-13T13:33:11;11.60;;;3.70;;
68714;SDS011;55692;53.356;10.030;2023-10-13T13:35:38;17.52;;;3.92;;
68714;SDS011;55692;53.356;10.030;2023-10-13T13:38:04;7.60;;;3.80;;
68714;SDS011;55692;53.356;10.030;2023-10-13T13:40:36;12.20;;;4.50;;
68714;SDS011;55692;53.356;10.030;2023-10-13T13:43:02;10.52;;;4.97;;
68714;SDS011;55692;53.356;10.030;2023-10-13T13:45:28;14.55;;;4.97;;
68714;SDS011;55692;53.356;10.030;2023-10-13T13:47:54;13.18;;;3.85;;
68714;SDS011;55692;53.356;10.030;2023-10-13T13:52:50;10.68;;;4.47;;
68714;SDS011;55692;53.356;10.030;2023-10-13T13:55:17;13.50;;;5.00;;
68714;SDS011;55692;53.356;10.030;2023-10-13T13:57:43;8.70;;;3.92;;
68714;SDS011;55692;53.356;10.030;2023-10-13T14:00:10;12.65;;;4.25;;
68714;SDS011;55692;53.356;10.030;2023-10-13T14:02:42;11.27;;;4.78;;
68714;SDS011;55692;53.356;10.030;2023-10-13T14:05:12;11.07;;;4.40;;
68714;SDS011;55692;53.356;10.030;2023-10-13T14:07:41;16.83;;;5.57;;
68714;SDS011;55692;53.356;10.030;2023-10-13T14:10:07;13.20;;;4.53;;
68714;SDS011;55692;53.356;10.030;2023-10-13T14:12:41;19.90;;;5.32;;
68714;SDS011;55692;53.356;10.030;2023-10-13T14:15:10;20.25;;;5.22;;
68714;SDS011;55692;53.356;10.030;2023-10-13T14:17:46;13.85;;;4.90;;
68714;SDS011;55692;53.356;10.030;2023-10-13T14:20:14;15.82;;;6.10;;
68714;SDS011;55692;53.356;10.030;2023-10-13T14:22:43;17.95;;;4.95;;
68714;SDS011;55692;53.356;10.030;2023-10-13T14:25:12;14.50;;;4.80;;
68714;SDS011;55692;53.356;10.030;2023-10-13T14:27:39;16.58;;;5.15;;
68714;SDS011;55692;53.356;10.030;2023-10-13T14:30:05;13.48;;;5.38;;
68714;SDS011;55692;53.356;10.030;2023-10-13T14:32:31;15.85;;;4.93;;
68714;SDS011;55692;53.356;10.030;2023-10-13T14:34:57;14.82;;;4.63;;
68714;SDS011;55692;53.356;10.030;2023-10-13T14:37:25;13.68;;;4.97;;
68714;SDS011;55692;53.356;10.030;2023-10-13T14:39:54;14.98;;;4.53;;
68714;SDS011;55692;53.356;10.030;2023-10-13T14:44:50;14.20;;;5.97;;
68714;SDS011;55692;53.356;10.030;2023-10-13T14:47:21;17.48;;;5.18;;
68714;SDS011;55692;53.356;10.030;2023-10-13T14:49:49;14.10;;;4.43;;
68714;SDS011;55692;53.356;10.030;2023-10-13T14:52:15;14.30;;;4.60;;
68714;SDS011;55692;53.356;10.030;2023-10-13T14:54:43;14.27;;;5.25;;
68714;SDS011;55692;53.356;10.030;2023-10-13T14:57:09;19.40;;;5.43;;
68714;SDS011;55692;53.356;10.030;2023-10-13T14:59:35;12.45;;;5.43;;
68714;SDS011;55692;53.356;10.030;2023-10-13T15:02:03;13.48;;;4.30;;
68714;SDS011;55692;53.356;10.030;2023-10-13T15:04:29;15.02;;;4.78;;
68714;SDS011;55692;53.356;10.030;2023-10-13T15:06:59;17.15;;;5.20;;
68714;SDS011;55692;53.356;10.030;2023-10-13T15:09:28;16.77;;;5.13;;
68714;SDS011;55692;53.356;10.030;2023-10-13T15:11:54;14.15;;;4.80;;
68714;SDS011;55692;53.356;10.030;2023-10-13T15:14:21;11.57;;;4.95;;
68714;SDS011;55692;53.356;10.030;2023-10-13T15:16:48;14.23;;;4.93;;
68714;SDS011;55692;53.356;10.030;2023-10-13T15:19:14;17.50;;;4.90;;
68714;SDS011;55692;53.356;10.030;2023-10-13T15:21:41;21.83;;;5.10;;
68714;SDS011;55692;53.356;10.030;2023-10-13T15:24:08;15.95;;;5.28;;
68714;SDS011;55692;53.356;10.030;2023-10-13T15:26:50;16.02;;;5.18;;